sensor_id;sensor_type;location;lat;lon;timestamp;P1;durP1;ratioP1;P2;durP2;ratioP2
19043;SDS011;9654;52.302;8.120;2023-07-29T00:00:03;5.63;;;4.77;;
19043;SDS011;9654;52.302;8.120;2023-07-29T00:02:31;5.73;;;5.10;;
19043;SDS011;9654;52.302;8.120;2023-07-29T00:04:58;6.87;;;5.47;;
19043;SDS011;9654;52.302;8.120;2023-07-29T00:07:25;7.77;;;5.63;;
19043;SDS011;9654;52.302;8.120;2023-07-29T00:09:53;5.80;;;5.20;;
19043;SDS011;9654;52.302;8.120;2023-07-29T00:12:19;6.87;;;5.00;;
19043;SDS011;9654;52.302;8.120;2023-07-29T00:14:46;7.10;;;5.23;;
19043;SDS011;9654;52.302;8.120;2023-07-29T00:17:13;7.47;;;5.53;;
19043;SDS011;9654;52.302;8.120;2023-07-29T00:19:40;6.37;;;5.77;;
19043;SDS011;9654;52.302;8.120;2023-07-29T00:22:06;5.77;;;5.20;;
19043;SDS011;9654;52.302;8.120;2023-07-29T00:24:33;8.33;;;6.40;;
19043;SDS011;9654;52.302;8.120;2023-07-29T00:27:01;10.23;;;6.00;;
19043;SDS011;9654;52.302;8.120;2023-07-29T00:29:28;5.93;;;5.20;;
19043;SDS011;9654;52.302;8.120;2023-07-29T00:31:55;6.60;;;5.37;;
19043;SDS011;9654;52.302;8.120;2023-07-29T00:34:22;8.03;;;5.73;;
19043;SDS011;9654;52.302;8.120;2023-07-29T00:36:49;9.50;;;5.37;;
19043;SDS011;9654;52.302;8.120;2023-07-29T00:39:15;7.43;;;6.20;;
19043;SDS011;9654;52.302;8.120;2023-07-29T00:41:44;8.40;;;5.77;;
19043;SDS011;9654;52.302;8.120;2023-07-29T00:44:12;7.67;;;4.40;;
19043;SDS011;9654;52.302;8.120;2023-07-29T00:46:39;8.27;;;5.90;;
19043;SDS011;9654;52.302;8.120;2023-07-29T00:49:07;6.23;;;5.63;;
19043;SDS011;9654;52.302;8.120;2023-07-29T00:51:34;5.83;;;4.90;;
19043;SDS011;9654;52.302;8.120;2023-07-29T00:54:01;7.87;;;5.77;;
19043;SDS011;9654;52.302;8.120;2023-07-29T00:56:28;7.33;;;4.83;;
19043;SDS011;9654;52.302;8.120;2023-07-29T00:58:55;7.20;;;6.10;;
19043;SDS011;9654;52.302;8.120;2023-07-29T01:01:28;10.57;;;6.20;;
19043;SDS011;9654;52.302;8.120;2023-07-29T01:03:55;8.70;;;6.43;;
19043;SDS011;9654;52.302;8.120;2023-07-29T01:06:23;6.53;;;5.83;;
19043;SDS011;9654;52.302;8.120;2023-07-29T01:08:57;7.80;;;6.73;;
19043;SDS011;9654;52.302;8.120;2023-07-29T01:11:32;11.43;;;6.80;;
19043;SDS011;9654;52.302;8.120;2023-07-29T01:14:05;9.30;;;6.27;;
19043;SDS011;9654;52.302;8.120;2023-07-29T01:16:44;7.63;;;6.30;;
19043;SDS011;9654;52.302;8.120;2023-07-29T01:19:20;9.10;;;6.40;;
19043;SDS011;9654;52.302;8.120;2023-07-29T01:22:00;7.40;;;5.43;;
19043;SDS011;9654;52.302;8.120;2023-07-29T01:24:30;8.47;;;5.90;;
19043;SDS011;9654;52.302;8.120;2023-07-29T01:26:58;7.37;;;6.00;;
19043;SDS011;9654;52.302;8.120;2023-07-29T01:29:26;7.57;;;5.70;;
19043;SDS011;9654;52.302;8.120;2023-07-29T01:31:54;7.13;;;5.00;;
19043;SDS011;9654;52.302;8.120;2023-07-29T01:34:29;7.27;;;5.13;;
19043;SDS011;9654;52.302;8.120;2023-07-29T01:37:01;9.03;;;4.90;;
19043;SDS011;9654;52.302;8.120;2023-07-29T01:39:32;6.43;;;5.23;;
19043;SDS011;9654;52.302;8.120;2023-07-29T01:42:03;5.53;;;4.83;;
19043;SDS011;9654;52.302;8.120;2023-07-29T01:44:30;5.57;;;4.90;;
19043;SDS011;9654;52.302;8.120;2023-07-29T01:46:57;9.43;;;4.93;;
19043;SDS011;9654;52.302;8.120;2023-07-29T01:49:25;7.90;;;5.03;;
19043;SDS011;9654;52.302;8.120;2023-07-29T01:51:52;6.83;;;5.23;;
19043;SDS011;9654;52.302;8.120;2023-07-29T01:54:19;5.00;;;4.50;;
19043;SDS011;9654;52.302;8.120;2023-07-29T01:56:47;5.93;;;5.33;;
19043;SDS011;9654;52.302;8.120;2023-07-29T01:59:16;5.57;;;4.70;;
19043;SDS011;9654;52.302;8.120;2023-07-29T02:01:42;5.70;;;5.10;;
19043;SDS011;9654;52.302;8.120;2023-07-29T02:04:11;7.00;;;5.10;;
19043;SDS011;9654;52.302;8.120;2023-07-29T02:06:38;6.13;;;5.53;;
19043;SDS011;9654;52.302;8.120;2023-07-29T02:09:05;5.60;;;4.60;;
19043;SDS011;9654;52.302;8.120;2023-07-29T02:11:32;6.03;;;5.30;;
19043;SDS011;9654;52.302;8.120;2023-07-29T02:14:00;6.03;;;5.27;;
19043;SDS011;9654;52.302;8.120;2023-07-29T02:16:26;5.73;;;5.10;;
19043;SDS011;9654;52.302;8.120;2023-07-29T02:18:54;6.07;;;5.23;;
19043;SDS011;9654;52.302;8.120;2023-07-29T02:21:20;6.73;;;5.23;;
19043;SDS011;9654;52.302;8.120;2023-07-29T02:23:47;6.23;;;5.23;;
19043;SDS011;9654;52.302;8.120;2023-07-29T02:26:14;8.20;;;5.60;;
19043;SDS011;9654;52.302;8.120;2023-07-29T02:28:41;6.20;;;5.40;;
19043;SDS011;9654;52.302;8.120;2023-07-29T02:31:14;6.90;;;5.30;;
19043;SDS011;9654;52.302;8.120;2023-07-29T02:33:41;8.20;;;5.73;;
19043;SDS011;9654;52.302;8.120;2023-07-29T02:36:09;7.97;;;6.00;;
19043;SDS011;9654;52.302;8.120;2023-07-29T02:38:36;6.30;;;5.47;;
19043;SDS011;9654;52.302;8.120;2023-07-29T02:41:03;7.60;;;5.80;;
19043;SDS011;9654;52.302;8.120;2023-07-29T02:43:29;7.70;;;5.30;;
19043;SDS011;9654;52.302;8.120;2023-07-29T02:45:56;8.23;;;6.03;;
19043;SDS011;9654;52.302;8.120;2023-07-29T02:48:24;6.50;;;5.83;;
19043;SDS011;9654;52.302;8.120;2023-07-29T02:50:51;8.53;;;5.97;;
19043;SDS011;9654;52.302;8.120;2023-07-29T02:53:18;6.10;;;5.60;;
19043;SDS011;9654;52.302;8.120;2023-07-29T02:55:45;9.60;;;6.00;;
19043;SDS011;9654;52.302;8.120;2023-07-29T02:58:11;8.17;;;5.77;;
19043;SDS011;9654;52.302;8.120;2023-07-29T03:00:38;7.60;;;6.00;;
19043;SDS011;9654;52.302;8.120;2023-07-29T03:03:06;8.20;;;6.00;;
19043;SDS011;9654;52.302;8.120;2023-07-29T03:05:34;6.77;;;4.83;;
19043;SDS011;9654;52.302;8.120;2023-07-29T03:08:03;6.00;;;5.33;;
19043;SDS011;9654;52.302;8.120;2023-07-29T03:10:30;7.83;;;5.60;;
19043;SDS011;9654;52.302;8.120;2023-07-29T03:12:56;7.83;;;5.50;;
19043;SDS011;9654;52.302;8.120;2023-07-29T03:15:23;8.57;;;6.47;;
19043;SDS011;9654;52.302;8.120;2023-07-29T03:17:50;7.57;;;6.27;;
19043;SDS011;9654;52.302;8.120;2023-07-29T03:20:17;8.80;;;7.27;;
19043;SDS011;9654;52.302;8.120;2023-07-29T03:22:46;8.80;;;7.10;;
19043;SDS011;9654;52.302;8.120;2023-07-29T03:25:13;9.00;;;6.50;;
19043;SDS011;9654;52.302;8.120;2023-07-29T03:27:40;9.20;;;6.57;;
19043;SDS011;9654;52.302;8.120;2023-07-29T03:30:07;9.50;;;6.97;;
19043;SDS011;9654;52.302;8.120;2023-07-29T03:32:34;10.13;;;7.77;;
19043;SDS011;9654;52.302;8.120;2023-07-29T03:35:01;12.90;;;9.30;;
19043;SDS011;9654;52.302;8.120;2023-07-29T03:37:28;12.63;;;8.70;;
19043;SDS011;9654;52.302;8.120;2023-07-29T03:39:56;12.70;;;9.17;;
19043;SDS011;9654;52.302;8.120;2023-07-29T03:42:23;12.73;;;9.43;;
19043;SDS011;9654;52.302;8.120;2023-07-29T03:44:50;13.67;;;10.30;;
19043;SDS011;9654;52.302;8.120;2023-07-29T03:47:17;11.87;;;9.43;;
19043;SDS011;9654;52.302;8.120;2023-07-29T03:49:43;11.60;;;8.90;;
19043;SDS011;9654;52.302;8.120;2023-07-29T03:52:10;12.23;;;9.57;;
19043;SDS011;9654;52.302;8.120;2023-07-29T03:54:37;13.60;;;9.73;;
19043;SDS011;9654;52.302;8.120;2023-07-29T03:57:05;14.97;;;11.33;;
19043;SDS011;9654;52.302;8.120;2023-07-29T03:59:32;14.23;;;10.80;;
19043;SDS011;9654;52.302;8.120;2023-07-29T04:01:59;15.10;;;11.93;;
19043;SDS011;9654;52.302;8.120;2023-07-29T04:04:26;12.97;;;10.57;;
19043;SDS011;9654;52.302;8.120;2023-07-29T04:06:52;17.50;;;13.77;;
19043;SDS011;9654;52.302;8.120;2023-07-29T04:09:19;16.30;;;12.40;;
19043;SDS011;9654;52.302;8.120;2023-07-29T04:11:46;18.63;;;13.67;;
19043;SDS011;9654;52.302;8.120;2023-07-29T04:14:14;18.57;;;14.13;;
19043;SDS011;9654;52.302;8.120;2023-07-29T04:16:41;22.90;;;14.33;;
19043;SDS011;9654;52.302;8.120;2023-07-29T04:19:08;17.30;;;13.37;;
19043;SDS011;9654;52.302;8.120;2023-07-29T04:21:34;17.07;;;13.60;;
19043;SDS011;9654;52.302;8.120;2023-07-29T04:24:02;19.17;;;12.83;;
19043;SDS011;9654;52.302;8.120;2023-07-29T04:26:29;17.63;;;14.47;;
19043;SDS011;9654;52.302;8.120;2023-07-29T04:28:55;20.50;;;13.83;;
19043;SDS011;9654;52.302;8.120;2023-07-29T04:31:24;19.40;;;14.20;;
19043;SDS011;9654;52.302;8.120;2023-07-29T04:33:51;17.50;;;13.83;;
19043;SDS011;9654;52.302;8.120;2023-07-29T04:36:18;18.67;;;14.70;;
19043;SDS011;9654;52.302;8.120;2023-07-29T04:38:45;18.73;;;13.57;;
19043;SDS011;9654;52.302;8.120;2023-07-29T04:41:11;21.97;;;13.97;;
19043;SDS011;9654;52.302;8.120;2023-07-29T04:43:38;20.57;;;15.13;;
19043;SDS011;9654;52.302;8.120;2023-07-29T04:46:06;19.73;;;15.10;;
19043;SDS011;9654;52.302;8.120;2023-07-29T04:48:35;19.50;;;14.87;;
19043;SDS011;9654;52.302;8.120;2023-07-29T04:51:02;22.40;;;15.17;;
19043;SDS011;9654;52.302;8.120;2023-07-29T04:53:28;21.77;;;15.13;;
19043;SDS011;9654;52.302;8.120;2023-07-29T04:55:55;21.60;;;15.60;;
19043;SDS011;9654;52.302;8.120;2023-07-29T04:58:22;25.67;;;16.50;;
19043;SDS011;9654;52.302;8.120;2023-07-29T05:00:49;18.93;;;16.00;;
19043;SDS011;9654;52.302;8.120;2023-07-29T05:03:15;20.83;;;16.80;;
19043;SDS011;9654;52.302;8.120;2023-07-29T05:05:44;22.67;;;15.83;;
19043;SDS011;9654;52.302;8.120;2023-07-29T05:08:10;22.40;;;16.70;;
19043;SDS011;9654;52.302;8.120;2023-07-29T05:10:37;24.07;;;16.83;;
19043;SDS011;9654;52.302;8.120;2023-07-29T05:13:04;21.73;;;16.97;;
19043;SDS011;9654;52.302;8.120;2023-07-29T05:15:30;23.90;;;16.43;;
19043;SDS011;9654;52.302;8.120;2023-07-29T05:17:57;22.47;;;16.87;;
19043;SDS011;9654;52.302;8.120;2023-07-29T05:20:24;19.73;;;16.53;;
19043;SDS011;9654;52.302;8.120;2023-07-29T05:22:52;23.97;;;17.30;;
19043;SDS011;9654;52.302;8.120;2023-07-29T05:25:19;25.73;;;17.97;;
19043;SDS011;9654;52.302;8.120;2023-07-29T05:27:46;21.60;;;17.23;;
19043;SDS011;9654;52.302;8.120;2023-07-29T05:30:12;21.70;;;17.77;;
19043;SDS011;9654;52.302;8.120;2023-07-29T05:32:39;23.50;;;18.50;;
19043;SDS011;9654;52.302;8.120;2023-07-29T05:35:06;24.40;;;17.53;;
19043;SDS011;9654;52.302;8.120;2023-07-29T05:37:33;22.50;;;16.80;;
19043;SDS011;9654;52.302;8.120;2023-07-29T05:40:02;25.27;;;17.83;;
19043;SDS011;9654;52.302;8.120;2023-07-29T05:42:29;21.37;;;16.70;;
19043;SDS011;9654;52.302;8.120;2023-07-29T05:44:56;23.33;;;18.73;;
19043;SDS011;9654;52.302;8.120;2023-07-29T05:47:22;23.50;;;18.20;;
19043;SDS011;9654;52.302;8.120;2023-07-29T05:49:49;21.17;;;17.07;;
19043;SDS011;9654;52.302;8.120;2023-07-29T05:52:16;20.10;;;17.40;;
19043;SDS011;9654;52.302;8.120;2023-07-29T05:54:43;22.63;;;18.10;;
19043;SDS011;9654;52.302;8.120;2023-07-29T05:57:11;22.90;;;18.43;;
19043;SDS011;9654;52.302;8.120;2023-07-29T05:59:38;22.37;;;17.77;;
19043;SDS011;9654;52.302;8.120;2023-07-29T06:02:05;21.93;;;17.63;;
19043;SDS011;9654;52.302;8.120;2023-07-29T06:04:32;20.77;;;18.17;;
19043;SDS011;9654;52.302;8.120;2023-07-29T06:06:59;21.77;;;18.93;;
19043;SDS011;9654;52.302;8.120;2023-07-29T06:09:25;22.70;;;18.90;;
19043;SDS011;9654;52.302;8.120;2023-07-29T06:11:52;21.37;;;18.13;;
19043;SDS011;9654;52.302;8.120;2023-07-29T06:14:20;22.37;;;19.13;;
19043;SDS011;9654;52.302;8.120;2023-07-29T06:16:47;27.27;;;18.47;;
19043;SDS011;9654;52.302;8.120;2023-07-29T06:19:14;23.63;;;18.40;;
19043;SDS011;9654;52.302;8.120;2023-07-29T06:21:40;23.57;;;18.00;;
19043;SDS011;9654;52.302;8.120;2023-07-29T06:24:08;24.27;;;17.67;;
19043;SDS011;9654;52.302;8.120;2023-07-29T06:26:34;20.30;;;17.77;;
19043;SDS011;9654;52.302;8.120;2023-07-29T06:29:01;21.60;;;17.43;;
19043;SDS011;9654;52.302;8.120;2023-07-29T06:31:29;23.40;;;18.03;;
19043;SDS011;9654;52.302;8.120;2023-07-29T06:33:57;19.93;;;17.83;;
19043;SDS011;9654;52.302;8.120;2023-07-29T06:36:24;22.43;;;18.43;;
19043;SDS011;9654;52.302;8.120;2023-07-29T06:38:51;19.77;;;15.93;;
19043;SDS011;9654;52.302;8.120;2023-07-29T06:41:19;20.03;;;16.73;;
19043;SDS011;9654;52.302;8.120;2023-07-29T06:43:46;21.13;;;17.23;;
19043;SDS011;9654;52.302;8.120;2023-07-29T06:46:13;18.80;;;15.90;;
19043;SDS011;9654;52.302;8.120;2023-07-29T06:48:41;19.53;;;16.77;;
19043;SDS011;9654;52.302;8.120;2023-07-29T06:51:08;18.27;;;15.97;;
19043;SDS011;9654;52.302;8.120;2023-07-29T06:53:35;20.70;;;16.23;;
19043;SDS011;9654;52.302;8.120;2023-07-29T06:56:01;24.10;;;15.17;;
19043;SDS011;9654;52.302;8.120;2023-07-29T06:58:29;18.30;;;14.87;;
19043;SDS011;9654;52.302;8.120;2023-07-29T07:00:56;17.93;;;15.07;;
19043;SDS011;9654;52.302;8.120;2023-07-29T07:03:23;20.97;;;15.93;;
19043;SDS011;9654;52.302;8.120;2023-07-29T07:05:51;19.37;;;15.77;;
19043;SDS011;9654;52.302;8.120;2023-07-29T07:08:18;17.73;;;15.17;;
19043;SDS011;9654;52.302;8.120;2023-07-29T07:10:46;16.93;;;15.13;;
19043;SDS011;9654;52.302;8.120;2023-07-29T07:13:13;17.13;;;14.73;;
19043;SDS011;9654;52.302;8.120;2023-07-29T07:15:39;17.90;;;15.83;;
19043;SDS011;9654;52.302;8.120;2023-07-29T07:18:06;17.97;;;15.20;;
19043;SDS011;9654;52.302;8.120;2023-07-29T07:20:34;20.20;;;16.30;;
19043;SDS011;9654;52.302;8.120;2023-07-29T07:23:03;21.87;;;17.20;;
19043;SDS011;9654;52.302;8.120;2023-07-29T07:25:33;23.30;;;16.83;;
19043;SDS011;9654;52.302;8.120;2023-07-29T07:28:00;16.00;;;13.30;;
19043;SDS011;9654;52.302;8.120;2023-07-29T07:30:27;18.13;;;13.73;;
19043;SDS011;9654;52.302;8.120;2023-07-29T07:32:54;16.43;;;13.77;;
19043;SDS011;9654;52.302;8.120;2023-07-29T07:35:20;16.60;;;13.63;;
19043;SDS011;9654;52.302;8.120;2023-07-29T07:37:47;16.00;;;13.30;;
19043;SDS011;9654;52.302;8.120;2023-07-29T07:40:15;19.63;;;13.57;;
19043;SDS011;9654;52.302;8.120;2023-07-29T07:42:42;25.87;;;16.57;;
19043;SDS011;9654;52.302;8.120;2023-07-29T07:45:09;22.13;;;16.30;;
19043;SDS011;9654;52.302;8.120;2023-07-29T07:47:36;22.60;;;16.73;;
19043;SDS011;9654;52.302;8.120;2023-07-29T07:50:03;18.90;;;14.53;;
19043;SDS011;9654;52.302;8.120;2023-07-29T07:52:30;18.20;;;14.07;;
19043;SDS011;9654;52.302;8.120;2023-07-29T07:54:57;19.50;;;15.23;;
19043;SDS011;9654;52.302;8.120;2023-07-29T07:57:25;21.03;;;15.93;;
19043;SDS011;9654;52.302;8.120;2023-07-29T07:59:51;20.60;;;15.23;;
19043;SDS011;9654;52.302;8.120;2023-07-29T08:02:18;20.70;;;16.07;;
19043;SDS011;9654;52.302;8.120;2023-07-29T08:04:45;17.23;;;13.43;;
19043;SDS011;9654;52.302;8.120;2023-07-29T08:07:12;14.87;;;13.10;;
19043;SDS011;9654;52.302;8.120;2023-07-29T08:09:39;16.53;;;12.73;;
19043;SDS011;9654;52.302;8.120;2023-07-29T08:12:06;13.13;;;11.17;;
19043;SDS011;9654;52.302;8.120;2023-07-29T08:14:34;13.23;;;11.40;;
19043;SDS011;9654;52.302;8.120;2023-07-29T08:17:01;11.03;;;9.93;;
19043;SDS011;9654;52.302;8.120;2023-07-29T08:19:28;10.27;;;9.10;;
19043;SDS011;9654;52.302;8.120;2023-07-29T08:21:55;9.70;;;7.87;;
19043;SDS011;9654;52.302;8.120;2023-07-29T08:24:21;7.97;;;6.07;;
19043;SDS011;9654;52.302;8.120;2023-07-29T08:26:48;5.87;;;4.90;;
19043;SDS011;9654;52.302;8.120;2023-07-29T08:29:18;3.80;;;3.50;;
19043;SDS011;9654;52.302;8.120;2023-07-29T08:31:46;3.73;;;3.10;;
19043;SDS011;9654;52.302;8.120;2023-07-29T08:34:12;2.70;;;2.50;;
19043;SDS011;9654;52.302;8.120;2023-07-29T08:36:39;4.70;;;3.20;;
19043;SDS011;9654;52.302;8.120;2023-07-29T08:39:06;3.17;;;2.73;;
19043;SDS011;9654;52.302;8.120;2023-07-29T08:41:35;3.47;;;2.47;;
19043;SDS011;9654;52.302;8.120;2023-07-29T08:44:07;2.07;;;1.67;;
19043;SDS011;9654;52.302;8.120;2023-07-29T08:46:37;2.30;;;1.80;;
19043;SDS011;9654;52.302;8.120;2023-07-29T08:49:06;2.40;;;2.03;;
19043;SDS011;9654;52.302;8.120;2023-07-29T08:51:33;5.83;;;1.70;;
19043;SDS011;9654;52.302;8.120;2023-07-29T08:54:01;1.33;;;1.23;;
19043;SDS011;9654;52.302;8.120;2023-07-29T08:56:28;1.43;;;1.43;;
19043;SDS011;9654;52.302;8.120;2023-07-29T08:58:55;1.43;;;1.40;;
19043;SDS011;9654;52.302;8.120;2023-07-29T09:01:22;1.57;;;1.20;;
19043;SDS011;9654;52.302;8.120;2023-07-29T09:03:49;1.30;;;1.20;;
19043;SDS011;9654;52.302;8.120;2023-07-29T09:06:17;1.33;;;1.10;;
19043;SDS011;9654;52.302;8.120;2023-07-29T09:08:45;1.17;;;1.17;;
19043;SDS011;9654;52.302;8.120;2023-07-29T09:11:13;1.47;;;1.37;;
19043;SDS011;9654;52.302;8.120;2023-07-29T09:13:42;1.17;;;1.07;;
19043;SDS011;9654;52.302;8.120;2023-07-29T09:16:08;1.13;;;0.90;;
19043;SDS011;9654;52.302;8.120;2023-07-29T09:18:36;2.50;;;1.37;;
19043;SDS011;9654;52.302;8.120;2023-07-29T09:21:02;1.10;;;1.10;;
19043;SDS011;9654;52.302;8.120;2023-07-29T09:23:39;2.30;;;1.60;;
19043;SDS011;9654;52.302;8.120;2023-07-29T09:26:07;1.37;;;1.27;;
19043;SDS011;9654;52.302;8.120;2023-07-29T09:28:34;2.20;;;1.20;;
19043;SDS011;9654;52.302;8.120;2023-07-29T09:31:02;3.03;;;1.57;;
19043;SDS011;9654;52.302;8.120;2023-07-29T09:33:29;3.70;;;1.27;;
19043;SDS011;9654;52.302;8.120;2023-07-29T09:36:00;1.37;;;1.30;;
19043;SDS011;9654;52.302;8.120;2023-07-29T09:38:27;2.10;;;0.90;;
19043;SDS011;9654;52.302;8.120;2023-07-29T09:40:56;1.17;;;1.00;;
19043;SDS011;9654;52.302;8.120;2023-07-29T09:43:25;0.80;;;0.80;;
19043;SDS011;9654;52.302;8.120;2023-07-29T09:45:54;0.80;;;0.80;;
19043;SDS011;9654;52.302;8.120;2023-07-29T09:48:22;4.27;;;0.70;;
19043;SDS011;9654;52.302;8.120;2023-07-29T09:50:49;1.17;;;0.80;;
19043;SDS011;9654;52.302;8.120;2023-07-29T09:53:16;0.93;;;0.77;;
19043;SDS011;9654;52.302;8.120;2023-07-29T09:55:45;0.60;;;0.60;;
19043;SDS011;9654;52.302;8.120;2023-07-29T09:58:14;0.70;;;0.70;;
19043;SDS011;9654;52.302;8.120;2023-07-29T10:00:45;0.80;;;0.80;;
19043;SDS011;9654;52.302;8.120;2023-07-29T10:03:13;0.60;;;0.60;;
19043;SDS011;9654;52.302;8.120;2023-07-29T10:05:41;0.63;;;0.63;;
19043;SDS011;9654;52.302;8.120;2023-07-29T10:08:08;3.30;;;0.80;;
19043;SDS011;9654;52.302;8.120;2023-07-29T10:10:36;1.20;;;0.80;;
19043;SDS011;9654;52.302;8.120;2023-07-29T10:13:03;0.70;;;0.70;;
19043;SDS011;9654;52.302;8.120;2023-07-29T10:15:32;1.27;;;0.70;;
19043;SDS011;9654;52.302;8.120;2023-07-29T10:17:59;0.87;;;0.87;;
19043;SDS011;9654;52.302;8.120;2023-07-29T10:20:28;1.80;;;0.80;;
19043;SDS011;9654;52.302;8.120;2023-07-29T10:22:59;0.70;;;0.70;;
19043;SDS011;9654;52.302;8.120;2023-07-29T10:25:28;1.77;;;0.60;;
19043;SDS011;9654;52.302;8.120;2023-07-29T10:28:02;0.77;;;0.77;;
19043;SDS011;9654;52.302;8.120;2023-07-29T10:30:33;1.00;;;1.00;;
19043;SDS011;9654;52.302;8.120;2023-07-29T10:33:01;0.70;;;0.70;;
19043;SDS011;9654;52.302;8.120;2023-07-29T10:35:29;0.73;;;0.73;;
19043;SDS011;9654;52.302;8.120;2023-07-29T10:37:58;0.90;;;0.90;;
19043;SDS011;9654;52.302;8.120;2023-07-29T10:40:26;1.53;;;0.70;;
19043;SDS011;9654;52.302;8.120;2023-07-29T10:43:09;0.70;;;0.70;;
19043;SDS011;9654;52.302;8.120;2023-07-29T10:45:40;0.70;;;0.60;;
19043;SDS011;9654;52.302;8.120;2023-07-29T10:48:10;0.60;;;0.60;;
19043;SDS011;9654;52.302;8.120;2023-07-29T10:50:37;0.93;;;0.80;;
19043;SDS011;9654;52.302;8.120;2023-07-29T10:53:04;1.00;;;0.50;;
19043;SDS011;9654;52.302;8.120;2023-07-29T10:55:31;0.68;;;0.68;;
19043;SDS011;9654;52.302;8.120;2023-07-29T10:58:11;0.60;;;0.60;;
19043;SDS011;9654;52.302;8.120;2023-07-29T11:00:42;1.37;;;0.87;;
19043;SDS011;9654;52.302;8.120;2023-07-29T11:03:09;0.70;;;0.70;;
19043;SDS011;9654;52.302;8.120;2023-07-29T11:05:42;1.58;;;0.60;;
19043;SDS011;9654;52.302;8.120;2023-07-29T11:08:16;1.70;;;0.70;;
19043;SDS011;9654;52.302;8.120;2023-07-29T11:11:06;0.77;;;0.77;;
19043;SDS011;9654;52.302;8.120;2023-07-29T11:13:34;0.65;;;0.65;;
19043;SDS011;9654;52.302;8.120;2023-07-29T11:16:04;0.85;;;0.70;;
19043;SDS011;9654;52.302;8.120;2023-07-29T11:18:31;0.80;;;0.80;;
19043;SDS011;9654;52.302;8.120;2023-07-29T11:20:59;0.80;;;0.60;;
19043;SDS011;9654;52.302;8.120;2023-07-29T11:23:28;0.60;;;0.60;;
19043;SDS011;9654;52.302;8.120;2023-07-29T11:25:58;0.50;;;0.50;;
19043;SDS011;9654;52.302;8.120;2023-07-29T11:28:26;0.70;;;0.70;;
19043;SDS011;9654;52.302;8.120;2023-07-29T11:30:54;1.27;;;0.80;;
19043;SDS011;9654;52.302;8.120;2023-07-29T11:33:24;0.55;;;0.55;;
19043;SDS011;9654;52.302;8.120;2023-07-29T11:35:53;1.05;;;0.93;;
19043;SDS011;9654;52.302;8.120;2023-07-29T11:38:21;0.90;;;0.90;;
19043;SDS011;9654;52.302;8.120;2023-07-29T11:40:55;1.17;;;1.07;;
19043;SDS011;9654;52.302;8.120;2023-07-29T11:43:23;0.90;;;0.90;;
19043;SDS011;9654;52.302;8.120;2023-07-29T11:45:50;3.30;;;1.05;;
19043;SDS011;9654;52.302;8.120;2023-07-29T11:48:17;1.23;;;0.57;;
19043;SDS011;9654;52.302;8.120;2023-07-29T11:50:46;3.45;;;0.95;;
19043;SDS011;9654;52.302;8.120;2023-07-29T11:53:13;1.65;;;1.00;;
19043;SDS011;9654;52.302;8.120;2023-07-29T11:55:40;1.65;;;0.95;;
19043;SDS011;9654;52.302;8.120;2023-07-29T11:58:07;0.93;;;0.93;;
19043;SDS011;9654;52.302;8.120;2023-07-29T12:00:34;1.35;;;1.00;;
19043;SDS011;9654;52.302;8.120;2023-07-29T12:03:00;0.85;;;0.80;;
19043;SDS011;9654;52.302;8.120;2023-07-29T12:05:27;5.00;;;1.27;;
19043;SDS011;9654;52.302;8.120;2023-07-29T12:07:56;1.52;;;1.10;;
19043;SDS011;9654;52.302;8.120;2023-07-29T12:10:23;2.70;;;1.58;;
19043;SDS011;9654;52.302;8.120;2023-07-29T12:12:51;2.42;;;1.13;;
19043;SDS011;9654;52.302;8.120;2023-07-29T12:15:24;0.98;;;0.98;;
19043;SDS011;9654;52.302;8.120;2023-07-29T12:17:53;0.90;;;0.90;;
19043;SDS011;9654;52.302;8.120;2023-07-29T12:20:22;0.73;;;0.73;;
19043;SDS011;9654;52.302;8.120;2023-07-29T12:22:52;1.10;;;1.10;;
19043;SDS011;9654;52.302;8.120;2023-07-29T12:25:21;1.20;;;1.00;;
19043;SDS011;9654;52.302;8.120;2023-07-29T12:27:49;0.98;;;0.98;;
19043;SDS011;9654;52.302;8.120;2023-07-29T12:30:16;1.38;;;1.35;;
19043;SDS011;9654;52.302;8.120;2023-07-29T12:32:46;1.63;;;1.20;;
19043;SDS011;9654;52.302;8.120;2023-07-29T12:35:13;2.63;;;0.90;;
19043;SDS011;9654;52.302;8.120;2023-07-29T12:37:40;1.00;;;1.00;;
19043;SDS011;9654;52.302;8.120;2023-07-29T12:40:09;1.27;;;1.17;;
19043;SDS011;9654;52.302;8.120;2023-07-29T12:42:48;1.67;;;1.10;;
19043;SDS011;9654;52.302;8.120;2023-07-29T12:45:16;0.90;;;0.90;;
19043;SDS011;9654;52.302;8.120;2023-07-29T12:47:43;1.00;;;1.00;;
19043;SDS011;9654;52.302;8.120;2023-07-29T12:50:10;2.28;;;0.90;;
19043;SDS011;9654;52.302;8.120;2023-07-29T12:52:37;1.30;;;1.20;;
19043;SDS011;9654;52.302;8.120;2023-07-29T12:55:04;1.40;;;1.30;;
19043;SDS011;9654;52.302;8.120;2023-07-29T12:57:34;1.50;;;0.80;;
19043;SDS011;9654;52.302;8.120;2023-07-29T13:00:02;1.20;;;1.10;;
19043;SDS011;9654;52.302;8.120;2023-07-29T13:02:29;1.10;;;1.10;;
19043;SDS011;9654;52.302;8.120;2023-07-29T13:04:56;1.45;;;1.10;;
19043;SDS011;9654;52.302;8.120;2023-07-29T13:07:22;1.40;;;1.30;;
19043;SDS011;9654;52.302;8.120;2023-07-29T13:09:49;1.10;;;1.00;;
19043;SDS011;9654;52.302;8.120;2023-07-29T13:12:16;1.30;;;0.90;;
19043;SDS011;9654;52.302;8.120;2023-07-29T13:14:44;1.10;;;1.10;;
19043;SDS011;9654;52.302;8.120;2023-07-29T13:17:11;0.85;;;0.85;;
19043;SDS011;9654;52.302;8.120;2023-07-29T13:19:37;2.15;;;1.10;;
19043;SDS011;9654;52.302;8.120;2023-07-29T13:22:04;0.85;;;0.85;;
19043;SDS011;9654;52.302;8.120;2023-07-29T13:24:31;0.85;;;0.85;;
19043;SDS011;9654;52.302;8.120;2023-07-29T13:26:58;1.48;;;0.90;;
19043;SDS011;9654;52.302;8.120;2023-07-29T13:29:25;0.98;;;0.90;;
19043;SDS011;9654;52.302;8.120;2023-07-29T13:31:53;1.20;;;1.10;;
19043;SDS011;9654;52.302;8.120;2023-07-29T13:34:20;1.20;;;1.10;;
19043;SDS011;9654;52.302;8.120;2023-07-29T13:36:47;1.05;;;1.02;;
19043;SDS011;9654;52.302;8.120;2023-07-29T13:39:13;2.60;;;0.80;;
19043;SDS011;9654;52.302;8.120;2023-07-29T13:41:40;1.00;;;0.88;;
19043;SDS011;9654;52.302;8.120;2023-07-29T13:44:07;1.27;;;1.07;;
19043;SDS011;9654;52.302;8.120;2023-07-29T13:46:34;1.10;;;1.10;;
19043;SDS011;9654;52.302;8.120;2023-07-29T13:49:02;5.03;;;1.20;;
19043;SDS011;9654;52.302;8.120;2023-07-29T13:51:28;1.53;;;1.00;;
19043;SDS011;9654;52.302;8.120;2023-07-29T13:53:55;2.60;;;1.10;;
19043;SDS011;9654;52.302;8.120;2023-07-29T13:56:22;2.00;;;1.33;;
19043;SDS011;9654;52.302;8.120;2023-07-29T13:58:49;1.27;;;1.00;;
19043;SDS011;9654;52.302;8.120;2023-07-29T14:01:15;2.40;;;1.40;;
19043;SDS011;9654;52.302;8.120;2023-07-29T14:03:42;2.88;;;1.40;;
19043;SDS011;9654;52.302;8.120;2023-07-29T14:06:10;1.48;;;1.38;;
19043;SDS011;9654;52.302;8.120;2023-07-29T14:08:37;1.20;;;1.10;;
19043;SDS011;9654;52.302;8.120;2023-07-29T14:11:05;2.72;;;1.27;;
19043;SDS011;9654;52.302;8.120;2023-07-29T14:13:32;2.67;;;1.30;;
19043;SDS011;9654;52.302;8.120;2023-07-29T14:16:00;1.75;;;1.10;;
19043;SDS011;9654;52.302;8.120;2023-07-29T14:18:27;1.40;;;1.10;;
19043;SDS011;9654;52.302;8.120;2023-07-29T14:20:54;1.10;;;1.10;;
19043;SDS011;9654;52.302;8.120;2023-07-29T14:23:22;1.30;;;1.20;;
19043;SDS011;9654;52.302;8.120;2023-07-29T14:25:49;1.83;;;1.20;;
19043;SDS011;9654;52.302;8.120;2023-07-29T14:28:15;2.77;;;1.40;;
19043;SDS011;9654;52.302;8.120;2023-07-29T14:30:42;2.23;;;1.30;;
19043;SDS011;9654;52.302;8.120;2023-07-29T14:33:09;2.47;;;1.20;;
19043;SDS011;9654;52.302;8.120;2023-07-29T14:35:36;1.20;;;1.10;;
19043;SDS011;9654;52.302;8.120;2023-07-29T14:38:03;5.88;;;1.75;;
19043;SDS011;9654;52.302;8.120;2023-07-29T14:40:31;2.60;;;1.52;;
19043;SDS011;9654;52.302;8.120;2023-07-29T14:42:58;3.07;;;1.50;;
19043;SDS011;9654;52.302;8.120;2023-07-29T14:45:25;1.30;;;1.20;;
19043;SDS011;9654;52.302;8.120;2023-07-29T14:47:51;1.30;;;1.30;;
19043;SDS011;9654;52.302;8.120;2023-07-29T14:50:18;2.10;;;1.40;;
19043;SDS011;9654;52.302;8.120;2023-07-29T14:52:45;1.80;;;1.70;;
19043;SDS011;9654;52.302;8.120;2023-07-29T14:55:11;2.80;;;1.90;;